sensor_id;sensor_type;location;lat;lon;timestamp;P1;durP1;ratioP1;P2;durP2;ratioP2
5533;SDS011;2789;51.902;7.636;2022-08-25T00:00:54;3.60;;;2.38;;
5533;SDS011;2789;51.902;7.636;2022-08-25T00:01:57;5.63;;;2.30;;
5533;SDS011;2789;51.902;7.636;2022-08-25T00:03:03;2.78;;;2.35;;
5533;SDS011;2789;51.902;7.636;2022-08-25T00:04:06;4.90;;;2.42;;
5533;SDS011;2789;51.902;7.636;2022-08-25T00:05:13;2.80;;;2.58;;
5533;SDS011;2789;51.902;7.636;2022-08-25T00:06:16;3.10;;;2.35;;
5533;SDS011;2789;51.902;7.636;2022-08-25T00:07:18;4.35;;;2.60;;
5533;SDS011;2789;51.902;7.636;2022-08-25T00:08:21;3.08;;;2.35;;
5533;SDS011;2789;51.902;7.636;2022-08-25T00:09:25;4.75;;;2.58;;
5533;SDS011;2789;51.902;7.636;2022-08-25T00:10:28;2.40;;;2.20;;
5533;SDS011;2789;51.902;7.636;2022-08-25T00:11:31;2.78;;;2.33;;
5533;SDS011;2789;51.902;7.636;2022-08-25T00:12:35;3.17;;;2.53;;
5533;SDS011;2789;51.902;7.636;2022-08-25T00:13:36;3.22;;;2.13;;
5533;SDS011;2789;51.902;7.636;2022-08-25T00:14:40;6.93;;;2.55;;
5533;SDS011;2789;51.902;7.636;2022-08-25T00:15:43;5.25;;;2.22;;
5533;SDS011;2789;51.902;7.636;2022-08-25T00:16:48;3.28;;;2.40;;
5533;SDS011;2789;51.902;7.636;2022-08-25T00:17:50;4.80;;;2.25;;
5533;SDS011;2789;51.902;7.636;2022-08-25T00:18:53;3.30;;;2.70;;
5533;SDS011;2789;51.902;7.636;2022-08-25T00:19:58;3.83;;;2.20;;
5533;SDS011;2789;51.902;7.636;2022-08-25T00:20:59;3.58;;;2.15;;
5533;SDS011;2789;51.902;7.636;2022-08-25T00:22:03;5.13;;;2.50;;
5533;SDS011;2789;51.902;7.636;2022-08-25T00:23:06;3.45;;;2.35;;
5533;SDS011;2789;51.902;7.636;2022-08-25T00:24:09;2.88;;;2.40;;
5533;SDS011;2789;51.902;7.636;2022-08-25T00:25:16;6.07;;;2.35;;
5533;SDS011;2789;51.902;7.636;2022-08-25T00:26:19;2.40;;;2.20;;
5533;SDS011;2789;51.902;7.636;2022-08-25T00:27:22;4.00;;;2.25;;
5533;SDS011;2789;51.902;7.636;2022-08-25T00:28:26;3.78;;;2.75;;
5533;SDS011;2789;51.902;7.636;2022-08-25T00:29:27;2.55;;;2.35;;
5533;SDS011;2789;51.902;7.636;2022-08-25T00:30:31;3.75;;;2.58;;
5533;SDS011;2789;51.902;7.636;2022-08-25T00:31:32;2.60;;;2.25;;
5533;SDS011;2789;51.902;7.636;2022-08-25T00:32:40;3.67;;;2.42;;
5533;SDS011;2789;51.902;7.636;2022-08-25T00:33:49;4.45;;;2.55;;
5533;SDS011;2789;51.902;7.636;2022-08-25T00:34:52;3.85;;;2.40;;
5533;SDS011;2789;51.902;7.636;2022-08-25T00:35:55;2.35;;;2.15;;
5533;SDS011;2789;51.902;7.636;2022-08-25T00:36:57;4.95;;;2.80;;
5533;SDS011;2789;51.902;7.636;2022-08-25T00:38:00;3.88;;;2.42;;
5533;SDS011;2789;51.902;7.636;2022-08-25T00:39:02;4.70;;;2.70;;
5533;SDS011;2789;51.902;7.636;2022-08-25T00:40:06;5.13;;;2.38;;
5533;SDS011;2789;51.902;7.636;2022-08-25T00:41:09;7.22;;;2.85;;
5533;SDS011;2789;51.902;7.636;2022-08-25T00:42:12;3.25;;;2.58;;
5533;SDS011;2789;51.902;7.636;2022-08-25T00:43:16;3.45;;;2.72;;
5533;SDS011;2789;51.902;7.636;2022-08-25T00:44:19;2.47;;;2.13;;
5533;SDS011;2789;51.902;7.636;2022-08-25T00:45:21;3.08;;;2.67;;
5533;SDS011;2789;51.902;7.636;2022-08-25T00:46:25;4.75;;;2.30;;
5533;SDS011;2789;51.902;7.636;2022-08-25T00:47:27;5.00;;;2.75;;
5533;SDS011;2789;51.902;7.636;2022-08-25T00:48:32;3.75;;;2.30;;
5533;SDS011;2789;51.902;7.636;2022-08-25T00:49:35;3.20;;;2.38;;
5533;SDS011;2789;51.902;7.636;2022-08-25T00:50:39;2.58;;;2.25;;
5533;SDS011;2789;51.902;7.636;2022-08-25T00:51:43;3.80;;;2.80;;
5533;SDS011;2789;51.902;7.636;2022-08-25T00:52:48;6.35;;;2.53;;
5533;SDS011;2789;51.902;7.636;2022-08-25T00:53:51;4.75;;;2.67;;
5533;SDS011;2789;51.902;7.636;2022-08-25T00:54:55;3.80;;;2.50;;
5533;SDS011;2789;51.902;7.636;2022-08-25T00:56:04;4.78;;;2.85;;
5533;SDS011;2789;51.902;7.636;2022-08-25T00:57:08;3.10;;;2.20;;
5533;SDS011;2789;51.902;7.636;2022-08-25T00:58:12;3.97;;;2.35;;
5533;SDS011;2789;51.902;7.636;2022-08-25T00:59:17;4.47;;;2.55;;
5533;SDS011;2789;51.902;7.636;2022-08-25T01:00:21;2.28;;;2.00;;
5533;SDS011;2789;51.902;7.636;2022-08-25T01:01:25;4.40;;;2.47;;
5533;SDS011;2789;51.902;7.636;2022-08-25T01:02:28;3.33;;;2.58;;
5533;SDS011;2789;51.902;7.636;2022-08-25T01:03:29;3.45;;;2.72;;
5533;SDS011;2789;51.902;7.636;2022-08-25T01:04:37;2.70;;;2.50;;
5533;SDS011;2789;51.902;7.636;2022-08-25T01:05:39;4.10;;;2.53;;
5533;SDS011;2789;51.902;7.636;2022-08-25T01:06:42;3.83;;;2.92;;
5533;SDS011;2789;51.902;7.636;2022-08-25T01:07:44;4.68;;;2.88;;
5533;SDS011;2789;51.902;7.636;2022-08-25T01:08:47;4.35;;;2.50;;
5533;SDS011;2789;51.902;7.636;2022-08-25T01:09:49;2.92;;;2.70;;
5533;SDS011;2789;51.902;7.636;2022-08-25T01:10:53;3.55;;;2.63;;
5533;SDS011;2789;51.902;7.636;2022-08-25T01:11:57;3.15;;;2.60;;
5533;SDS011;2789;51.902;7.636;2022-08-25T01:13:00;5.15;;;2.83;;
5533;SDS011;2789;51.902;7.636;2022-08-25T01:14:03;6.05;;;2.30;;
5533;SDS011;2789;51.902;7.636;2022-08-25T01:15:08;4.95;;;2.78;;
5533;SDS011;2789;51.902;7.636;2022-08-25T01:16:11;3.60;;;2.85;;
5533;SDS011;2789;51.902;7.636;2022-08-25T01:17:15;4.60;;;2.83;;
5533;SDS011;2789;51.902;7.636;2022-08-25T01:18:17;5.05;;;2.80;;
5533;SDS011;2789;51.902;7.636;2022-08-25T01:19:20;4.45;;;2.70;;
5533;SDS011;2789;51.902;7.636;2022-08-25T01:20:25;3.25;;;2.30;;
5533;SDS011;2789;51.902;7.636;2022-08-25T01:21:35;2.90;;;2.38;;
5533;SDS011;2789;51.902;7.636;2022-08-25T01:22:39;2.90;;;2.70;;
5533;SDS011;2789;51.902;7.636;2022-08-25T01:23:41;4.53;;;2.65;;
5533;SDS011;2789;51.902;7.636;2022-08-25T01:24:46;3.22;;;2.50;;
5533;SDS011;2789;51.902;7.636;2022-08-25T01:25:52;5.85;;;2.65;;
5533;SDS011;2789;51.902;7.636;2022-08-25T01:26:58;4.70;;;2.35;;
5533;SDS011;2789;51.902;7.636;2022-08-25T01:28:00;4.88;;;2.80;;
5533;SDS011;2789;51.902;7.636;2022-08-25T01:29:04;3.88;;;2.72;;
5533;SDS011;2789;51.902;7.636;2022-08-25T01:30:22;6.60;;;2.30;;
5533;SDS011;2789;51.902;7.636;2022-08-25T01:31:25;5.75;;;2.53;;
5533;SDS011;2789;51.902;7.636;2022-08-25T01:32:27;6.93;;;2.65;;
5533;SDS011;2789;51.902;7.636;2022-08-25T01:33:30;3.40;;;2.50;;
5533;SDS011;2789;51.902;7.636;2022-08-25T01:34:33;5.93;;;2.75;;
5533;SDS011;2789;51.902;7.636;2022-08-25T01:35:38;4.85;;;2.55;;
5533;SDS011;2789;51.902;7.636;2022-08-25T01:36:42;3.50;;;2.50;;
5533;SDS011;2789;51.902;7.636;2022-08-25T01:37:45;4.43;;;2.25;;
5533;SDS011;2789;51.902;7.636;2022-08-25T01:38:47;3.58;;;2.20;;
5533;SDS011;2789;51.902;7.636;2022-08-25T01:39:50;4.13;;;2.60;;
5533;SDS011;2789;51.902;7.636;2022-08-25T01:40:52;6.15;;;2.53;;
5533;SDS011;2789;51.902;7.636;2022-08-25T01:42:02;3.35;;;2.78;;
5533;SDS011;2789;51.902;7.636;2022-08-25T01:43:11;3.45;;;2.42;;
5533;SDS011;2789;51.902;7.636;2022-08-25T01:44:19;4.50;;;2.33;;
5533;SDS011;2789;51.902;7.636;2022-08-25T01:45:20;3.75;;;2.70;;
5533;SDS011;2789;51.902;7.636;2022-08-25T01:46:23;6.45;;;2.80;;
5533;SDS011;2789;51.902;7.636;2022-08-25T01:47:25;4.72;;;2.63;;
5533;SDS011;2789;51.902;7.636;2022-08-25T01:48:27;4.15;;;2.63;;
5533;SDS011;2789;51.902;7.636;2022-08-25T01:49:29;3.67;;;2.70;;
5533;SDS011;2789;51.902;7.636;2022-08-25T01:50:32;3.75;;;2.70;;
5533;SDS011;2789;51.902;7.636;2022-08-25T01:51:37;3.63;;;2.58;;
5533;SDS011;2789;51.902;7.636;2022-08-25T01:52:50;6.68;;;3.15;;
5533;SDS011;2789;51.902;7.636;2022-08-25T01:53:54;3.88;;;2.95;;
5533;SDS011;2789;51.902;7.636;2022-08-25T01:54:57;4.95;;;3.20;;
5533;SDS011;2789;51.902;7.636;2022-08-25T01:55:58;4.88;;;2.90;;
5533;SDS011;2789;51.902;7.636;2022-08-25T01:57:04;2.92;;;2.30;;
5533;SDS011;2789;51.902;7.636;2022-08-25T01:58:06;3.78;;;2.60;;
5533;SDS011;2789;51.902;7.636;2022-08-25T01:59:08;5.25;;;2.65;;
5533;SDS011;2789;51.902;7.636;2022-08-25T02:00:11;3.10;;;2.58;;
5533;SDS011;2789;51.902;7.636;2022-08-25T02:01:15;3.75;;;2.67;;
5533;SDS011;2789;51.902;7.636;2022-08-25T02:02:19;3.65;;;3.35;;
5533;SDS011;2789;51.902;7.636;2022-08-25T02:03:21;4.35;;;2.58;;
5533;SDS011;2789;51.902;7.636;2022-08-25T02:04:25;4.43;;;2.30;;
5533;SDS011;2789;51.902;7.636;2022-08-25T02:05:29;4.05;;;2.42;;
5533;SDS011;2789;51.902;7.636;2022-08-25T02:06:32;4.32;;;2.42;;
5533;SDS011;2789;51.902;7.636;2022-08-25T02:07:36;4.65;;;2.55;;
5533;SDS011;2789;51.902;7.636;2022-08-25T02:08:40;4.80;;;2.95;;
5533;SDS011;2789;51.902;7.636;2022-08-25T02:09:43;3.03;;;2.60;;
5533;SDS011;2789;51.902;7.636;2022-08-25T02:10:45;3.28;;;2.63;;
5533;SDS011;2789;51.902;7.636;2022-08-25T02:11:48;4.28;;;2.53;;
5533;SDS011;2789;51.902;7.636;2022-08-25T02:12:50;2.90;;;2.65;;
5533;SDS011;2789;51.902;7.636;2022-08-25T02:13:54;4.90;;;3.00;;
5533;SDS011;2789;51.902;7.636;2022-08-25T02:14:56;5.70;;;3.00;;
5533;SDS011;2789;51.902;7.636;2022-08-25T02:15:59;4.28;;;2.58;;
5533;SDS011;2789;51.902;7.636;2022-08-25T02:17:01;3.15;;;2.85;;
5533;SDS011;2789;51.902;7.636;2022-08-25T02:18:04;5.45;;;2.75;;
5533;SDS011;2789;51.902;7.636;2022-08-25T02:19:07;2.75;;;2.55;;
5533;SDS011;2789;51.902;7.636;2022-08-25T02:20:11;4.90;;;2.90;;
5533;SDS011;2789;51.902;7.636;2022-08-25T02:21:16;5.00;;;3.08;;
5533;SDS011;2789;51.902;7.636;2022-08-25T02:22:18;3.83;;;2.42;;
5533;SDS011;2789;51.902;7.636;2022-08-25T02:23:21;3.10;;;2.70;;
5533;SDS011;2789;51.902;7.636;2022-08-25T02:24:25;4.70;;;2.70;;
5533;SDS011;2789;51.902;7.636;2022-08-25T02:25:27;5.70;;;2.67;;
5533;SDS011;2789;51.902;7.636;2022-08-25T02:26:29;4.35;;;2.50;;
5533;SDS011;2789;51.902;7.636;2022-08-25T02:27:31;2.70;;;2.40;;
5533;SDS011;2789;51.902;7.636;2022-08-25T02:28:34;2.72;;;2.45;;
5533;SDS011;2789;51.902;7.636;2022-08-25T02:29:35;3.50;;;2.53;;
5533;SDS011;2789;51.902;7.636;2022-08-25T02:30:39;3.47;;;2.75;;
5533;SDS011;2789;51.902;7.636;2022-08-25T02:31:42;5.40;;;2.85;;
5533;SDS011;2789;51.902;7.636;2022-08-25T02:32:45;3.53;;;2.60;;
5533;SDS011;2789;51.902;7.636;2022-08-25T02:33:47;4.03;;;2.95;;
5533;SDS011;2789;51.902;7.636;2022-08-25T02:34:50;5.60;;;2.78;;
5533;SDS011;2789;51.902;7.636;2022-08-25T02:35:51;3.40;;;2.72;;
5533;SDS011;2789;51.902;7.636;2022-08-25T02:36:54;4.57;;;2.70;;
5533;SDS011;2789;51.902;7.636;2022-08-25T02:37:56;4.63;;;2.40;;
5533;SDS011;2789;51.902;7.636;2022-08-25T02:38:58;3.20;;;2.45;;
5533;SDS011;2789;51.902;7.636;2022-08-25T02:40:02;3.85;;;2.90;;
5533;SDS011;2789;51.902;7.636;2022-08-25T02:41:08;6.30;;;2.75;;
5533;SDS011;2789;51.902;7.636;2022-08-25T02:42:12;3.33;;;2.58;;
5533;SDS011;2789;51.902;7.636;2022-08-25T02:43:15;4.63;;;2.85;;
5533;SDS011;2789;51.902;7.636;2022-08-25T02:44:16;5.53;;;3.00;;
5533;SDS011;2789;51.902;7.636;2022-08-25T02:45:19;4.20;;;2.63;;
5533;SDS011;2789;51.902;7.636;2022-08-25T02:46:21;3.25;;;2.95;;
5533;SDS011;2789;51.902;7.636;2022-08-25T02:47:25;8.57;;;2.97;;
5533;SDS011;2789;51.902;7.636;2022-08-25T02:48:27;3.97;;;2.70;;
5533;SDS011;2789;51.902;7.636;2022-08-25T02:49:29;3.25;;;3.00;;
5533;SDS011;2789;51.902;7.636;2022-08-25T02:50:32;4.97;;;2.63;;
5533;SDS011;2789;51.902;7.636;2022-08-25T02:51:34;2.42;;;2.22;;
5533;SDS011;2789;51.902;7.636;2022-08-25T02:52:36;3.08;;;2.80;;
5533;SDS011;2789;51.902;7.636;2022-08-25T02:53:40;4.50;;;2.78;;
5533;SDS011;2789;51.902;7.636;2022-08-25T02:54:43;5.43;;;2.70;;
5533;SDS011;2789;51.902;7.636;2022-08-25T02:55:46;5.63;;;3.03;;
5533;SDS011;2789;51.902;7.636;2022-08-25T02:56:48;9.13;;;5.07;;
5533;SDS011;2789;51.902;7.636;2022-08-25T02:57:51;4.30;;;3.80;;
5533;SDS011;2789;51.902;7.636;2022-08-25T02:58:52;3.65;;;3.00;;
5533;SDS011;2789;51.902;7.636;2022-08-25T02:59:55;5.18;;;2.92;;
5533;SDS011;2789;51.902;7.636;2022-08-25T03:00:58;3.05;;;2.50;;
5533;SDS011;2789;51.902;7.636;2022-08-25T03:02:00;2.63;;;2.42;;
5533;SDS011;2789;51.902;7.636;2022-08-25T03:03:02;4.43;;;2.83;;
5533;SDS011;2789;51.902;7.636;2022-08-25T03:04:05;3.22;;;2.92;;
5533;SDS011;2789;51.902;7.636;2022-08-25T03:05:08;3.58;;;2.47;;
5533;SDS011;2789;51.902;7.636;2022-08-25T03:06:14;6.90;;;2.72;;
5533;SDS011;2789;51.902;7.636;2022-08-25T03:07:17;5.68;;;2.70;;
5533;SDS011;2789;51.902;7.636;2022-08-25T03:08:21;4.85;;;3.05;;
5533;SDS011;2789;51.902;7.636;2022-08-25T03:09:23;2.88;;;2.63;;
5533;SDS011;2789;51.902;7.636;2022-08-25T03:10:26;4.97;;;2.60;;
5533;SDS011;2789;51.902;7.636;2022-08-25T03:11:29;3.40;;;2.70;;
5533;SDS011;2789;51.902;7.636;2022-08-25T03:12:31;3.28;;;2.83;;
5533;SDS011;2789;51.902;7.636;2022-08-25T03:13:33;3.30;;;2.72;;
5533;SDS011;2789;51.902;7.636;2022-08-25T03:14:36;3.33;;;2.83;;
5533;SDS011;2789;51.902;7.636;2022-08-25T03:15:38;3.05;;;2.40;;
5533;SDS011;2789;51.902;7.636;2022-08-25T03:16:42;7.05;;;2.90;;
5533;SDS011;2789;51.902;7.636;2022-08-25T03:17:47;3.20;;;2.78;;
5533;SDS011;2789;51.902;7.636;2022-08-25T03:18:50;4.45;;;2.72;;
5533;SDS011;2789;51.902;7.636;2022-08-25T03:19:53;6.78;;;3.10;;
5533;SDS011;2789;51.902;7.636;2022-08-25T03:20:54;7.13;;;2.60;;
5533;SDS011;2789;51.902;7.636;2022-08-25T03:21:57;3.30;;;2.67;;
5533;SDS011;2789;51.902;7.636;2022-08-25T03:22:59;3.30;;;2.80;;
5533;SDS011;2789;51.902;7.636;2022-08-25T03:24:02;3.53;;;3.00;;
5533;SDS011;2789;51.902;7.636;2022-08-25T03:25:05;6.07;;;2.75;;
5533;SDS011;2789;51.902;7.636;2022-08-25T03:26:25;4.40;;;2.83;;
5533;SDS011;2789;51.902;7.636;2022-08-25T03:27:46;4.60;;;2.75;;
5533;SDS011;2789;51.902;7.636;2022-08-25T03:28:49;4.43;;;3.13;;
5533;SDS011;2789;51.902;7.636;2022-08-25T03:29:51;4.20;;;3.45;;
5533;SDS011;2789;51.902;7.636;2022-08-25T03:30:55;4.93;;;3.20;;
5533;SDS011;2789;51.902;7.636;2022-08-25T03:31:57;4.97;;;2.95;;
5533;SDS011;2789;51.902;7.636;2022-08-25T03:33:01;3.33;;;2.80;;
5533;SDS011;2789;51.902;7.636;2022-08-25T03:34:03;4.70;;;2.85;;
5533;SDS011;2789;51.902;7.636;2022-08-25T03:35:06;3.70;;;2.67;;
5533;SDS011;2789;51.902;7.636;2022-08-25T03:36:08;7.10;;;3.33;;
5533;SDS011;2789;51.902;7.636;2022-08-25T03:37:12;3.70;;;2.75;;
5533;SDS011;2789;51.902;7.636;2022-08-25T03:38:14;4.38;;;2.85;;
5533;SDS011;2789;51.902;7.636;2022-08-25T03:39:18;7.22;;;3.13;;
5533;SDS011;2789;51.902;7.636;2022-08-25T03:40:20;3.97;;;2.90;;
5533;SDS011;2789;51.902;7.636;2022-08-25T03:41:24;4.38;;;3.20;;
5533;SDS011;2789;51.902;7.636;2022-08-25T03:42:29;6.10;;;3.08;;
5533;SDS011;2789;51.902;7.636;2022-08-25T03:43:33;3.67;;;2.72;;
5533;SDS011;2789;51.902;7.636;2022-08-25T03:44:34;4.90;;;3.20;;
5533;SDS011;2789;51.902;7.636;2022-08-25T03:45:38;5.35;;;2.90;;
5533;SDS011;2789;51.902;7.636;2022-08-25T03:46:41;5.30;;;3.25;;
5533;SDS011;2789;51.902;7.636;2022-08-25T03:47:46;5.25;;;3.35;;
5533;SDS011;2789;51.902;7.636;2022-08-25T03:48:48;5.07;;;3.05;;
5533;SDS011;2789;51.902;7.636;2022-08-25T03:49:52;4.35;;;2.90;;
5533;SDS011;2789;51.902;7.636;2022-08-25T03:50:53;5.30;;;3.20;;
5533;SDS011;2789;51.902;7.636;2022-08-25T03:51:56;3.90;;;2.85;;
5533;SDS011;2789;51.902;7.636;2022-08-25T03:52:57;4.60;;;3.03;;
5533;SDS011;2789;51.902;7.636;2022-08-25T03:54:00;4.95;;;3.35;;
5533;SDS011;2789;51.902;7.636;2022-08-25T03:55:04;4.20;;;3.13;;
5533;SDS011;2789;51.902;7.636;2022-08-25T03:56:08;4.57;;;3.42;;
5533;SDS011;2789;51.902;7.636;2022-08-25T03:57:11;5.07;;;2.92;;
5533;SDS011;2789;51.902;7.636;2022-08-25T03:58:13;5.10;;;3.15;;
5533;SDS011;2789;51.902;7.636;2022-08-25T03:59:17;3.58;;;3.22;;
5533;SDS011;2789;51.902;7.636;2022-08-25T04:00:20;4.47;;;2.95;;
5533;SDS011;2789;51.902;7.636;2022-08-25T04:01:22;5.82;;;3.35;;
5533;SDS011;2789;51.902;7.636;2022-08-25T04:02:25;6.80;;;3.38;;
5533;SDS011;2789;51.902;7.636;2022-08-25T04:03:27;3.47;;;3.17;;
5533;SDS011;2789;51.902;7.636;2022-08-25T04:04:30;3.83;;;3.00;;
5533;SDS011;2789;51.902;7.636;2022-08-25T04:05:32;4.22;;;3.10;;
5533;SDS011;2789;51.902;7.636;2022-08-25T04:06:36;5.13;;;3.00;;
5533;SDS011;2789;51.902;7.636;2022-08-25T04:07:38;5.72;;;3.88;;
5533;SDS011;2789;51.902;7.636;2022-08-25T04:08:42;3.30;;;3.00;;
5533;SDS011;2789;51.902;7.636;2022-08-25T04:09:43;4.68;;;3.50;;
5533;SDS011;2789;51.902;7.636;2022-08-25T04:10:46;5.68;;;3.63;;
5533;SDS011;2789;51.902;7.636;2022-08-25T04:11:48;6.43;;;2.85;;
5533;SDS011;2789;51.902;7.636;2022-08-25T04:12:53;8.23;;;3.28;;
5533;SDS011;2789;51.902;7.636;2022-08-25T04:13:56;6.90;;;3.25;;
5533;SDS011;2789;51.902;7.636;2022-08-25T04:15:02;5.40;;;3.42;;
5533;SDS011;2789;51.902;7.636;2022-08-25T04:16:08;6.88;;;3.88;;
5533;SDS011;2789;51.902;7.636;2022-08-25T04:17:12;6.22;;;3.20;;
5533;SDS011;2789;51.902;7.636;2022-08-25T04:18:14;4.38;;;3.42;;
5533;SDS011;2789;51.902;7.636;2022-08-25T04:19:17;5.40;;;3.38;;
5533;SDS011;2789;51.902;7.636;2022-08-25T04:20:19;5.28;;;3.75;;
5533;SDS011;2789;51.902;7.636;2022-08-25T04:21:22;7.03;;;3.63;;
5533;SDS011;2789;51.902;7.636;2022-08-25T04:22:24;7.45;;;3.45;;
5533;SDS011;2789;51.902;7.636;2022-08-25T04:23:30;6.15;;;3.50;;
5533;SDS011;2789;51.902;7.636;2022-08-25T04:24:31;4.93;;;3.38;;
5533;SDS011;2789;51.902;7.636;2022-08-25T04:25:34;5.85;;;3.08;;
5533;SDS011;2789;51.902;7.636;2022-08-25T04:26:43;4.65;;;3.65;;
5533;SDS011;2789;51.902;7.636;2022-08-25T04:27:47;4.03;;;3.70;;
5533;SDS011;2789;51.902;7.636;2022-08-25T04:28:50;6.72;;;3.72;;
5533;SDS011;2789;51.902;7.636;2022-08-25T04:29:51;3.65;;;3.20;;
5533;SDS011;2789;51.902;7.636;2022-08-25T04:30:56;6.03;;;3.70;;
5533;SDS011;2789;51.902;7.636;2022-08-25T04:31:57;5.30;;;3.67;;
5533;SDS011;2789;51.902;7.636;2022-08-25T04:33:00;5.97;;;3.97;;
5533;SDS011;2789;51.902;7.636;2022-08-25T04:34:02;6.60;;;3.30;;
5533;SDS011;2789;51.902;7.636;2022-08-25T04:35:25;6.10;;;3.47;;
5533;SDS011;2789;51.902;7.636;2022-08-25T04:36:28;7.65;;;3.58;;
5533;SDS011;2789;51.902;7.636;2022-08-25T04:37:29;5.72;;;3.55;;
5533;SDS011;2789;51.902;7.636;2022-08-25T04:38:33;6.72;;;3.72;;
5533;SDS011;2789;51.902;7.636;2022-08-25T04:39:35;5.03;;;3.80;;
5533;SDS011;2789;51.902;7.636;2022-08-25T04:40:37;3.85;;;3.45;;
5533;SDS011;2789;51.902;7.636;2022-08-25T04:41:39;5.65;;;3.80;;
5533;SDS011;2789;51.902;7.636;2022-08-25T04:42:42;4.30;;;3.90;;
5533;SDS011;2789;51.902;7.636;2022-08-25T04:43:48;3.78;;;3.40;;
5533;SDS011;2789;51.902;7.636;2022-08-25T04:44:51;6.95;;;3.72;;
5533;SDS011;2789;51.902;7.636;2022-08-25T04:45:55;5.25;;;3.53;;
5533;SDS011;2789;51.902;7.636;2022-08-25T04:46:59;4.50;;;3.30;;
5533;SDS011;2789;51.902;7.636;2022-08-25T04:48:01;4.40;;;3.40;;
5533;SDS011;2789;51.902;7.636;2022-08-25T04:49:04;4.38;;;3.40;;
5533;SDS011;2789;51.902;7.636;2022-08-25T04:50:06;5.60;;;3.35;;
5533;SDS011;2789;51.902;7.636;2022-08-25T04:51:10;8.77;;;4.00;;
5533;SDS011;2789;51.902;7.636;2022-08-25T04:52:13;6.38;;;3.88;;
5533;SDS011;2789;51.902;7.636;2022-08-25T04:53:16;6.18;;;3.83;;
5533;SDS011;2789;51.902;7.636;2022-08-25T04:54:19;5.38;;;3.90;;
5533;SDS011;2789;51.902;7.636;2022-08-25T04:55:22;7.32;;;4.18;;
5533;SDS011;2789;51.902;7.636;2022-08-25T04:56:25;5.28;;;3.55;;
5533;SDS011;2789;51.902;7.636;2022-08-25T04:57:28;4.60;;;3.70;;
5533;SDS011;2789;51.902;7.636;2022-08-25T04:58:29;5.10;;;3.92;;
5533;SDS011;2789;51.902;7.636;2022-08-25T04:59:32;5.72;;;3.45;;
5533;SDS011;2789;51.902;7.636;2022-08-25T05:00:34;5.57;;;4.05;;
5533;SDS011;2789;51.902;7.636;2022-08-25T05:01:38;4.95;;;3.95;;
5533;SDS011;2789;51.902;7.636;2022-08-25T05:02:41;6.45;;;3.85;;
5533;SDS011;2789;51.902;7.636;2022-08-25T05:03:44;3.95;;;3.55;;
5533;SDS011;2789;51.902;7.636;2022-08-25T05:04:47;4.47;;;3.63;;
5533;SDS011;2789;51.902;7.636;2022-08-25T05:05:50;4.05;;;3.65;;
5533;SDS011;2789;51.902;7.636;2022-08-25T05:06:52;5.90;;;4.03;;
5533;SDS011;2789;51.902;7.636;2022-08-25T05:07:55;6.65;;;3.67;;
5533;SDS011;2789;51.902;7.636;2022-08-25T05:08:57;4.45;;;3.63;;
5533;SDS011;2789;51.902;7.636;2022-08-25T05:10:02;4.00;;;3.60;;
5533;SDS011;2789;51.902;7.636;2022-08-25T05:11:04;3.95;;;3.50;;
5533;SDS011;2789;51.902;7.636;2022-08-25T05:12:07;6.85;;;3.42;;
5533;SDS011;2789;51.902;7.636;2022-08-25T05:13:11;4.75;;;3.45;;
5533;SDS011;2789;51.902;7.636;2022-08-25T05:14:14;7.85;;;4.03;;
5533;SDS011;2789;51.902;7.636;2022-08-25T05:15:18;5.15;;;3.65;;
5533;SDS011;2789;51.902;7.636;2022-08-25T05:16:40;4.28;;;3.67;;
5533;SDS011;2789;51.902;7.636;2022-08-25T05:17:42;7.22;;;3.53;;
5533;SDS011;2789;51.902;7.636;2022-08-25T05:18:44;8.38;;;3.83;;
5533;SDS011;2789;51.902;7.636;2022-08-25T05:19:47;6.03;;;3.70;;
5533;SDS011;2789;51.902;7.636;2022-08-25T05:20:48;5.35;;;4.28;;
5533;SDS011;2789;51.902;7.636;2022-08-25T05:21:52;3.22;;;2.97;;
5533;SDS011;2789;51.902;7.636;2022-08-25T05:22:54;5.38;;;3.78;;
5533;SDS011;2789;51.902;7.636;2022-08-25T05:23:57;7.53;;;4.05;;
5533;SDS011;2789;51.902;7.636;2022-08-25T05:25:00;5.43;;;3.60;;
5533;SDS011;2789;51.902;7.636;2022-08-25T05:26:04;4.60;;;3.97;;
5533;SDS011;2789;51.902;7.636;2022-08-25T05:27:08;4.32;;;3.83;;
5533;SDS011;2789;51.902;7.636;2022-08-25T05:28:11;8.27;;;4.15;;
5533;SDS011;2789;51.902;7.636;2022-08-25T05:29:14;4.75;;;3.92;;
5533;SDS011;2789;51.902;7.636;2022-08-25T05:30:17;4.75;;;3.70;;
5533;SDS011;2789;51.902;7.636;2022-08-25T05:31:19;9.98;;;4.28;;
5533;SDS011;2789;51.902;7.636;2022-08-25T05:32:25;4.13;;;3.75;;
5533;SDS011;2789;51.902;7.636;2022-08-25T05:33:27;3.72;;;3.42;;
5533;SDS011;2789;51.902;7.636;2022-08-25T05:34:34;4.93;;;3.95;;
5533;SDS011;2789;51.902;7.636;2022-08-25T05:35:37;5.57;;;4.53;;
5533;SDS011;2789;51.902;7.636;2022-08-25T05:36:39;6.07;;;4.32;;
5533;SDS011;2789;51.902;7.636;2022-08-25T05:37:43;5.72;;;3.97;;
5533;SDS011;2789;51.902;7.636;2022-08-25T05:38:45;6.40;;;3.80;;
5533;SDS011;2789;51.902;7.636;2022-08-25T05:39:48;4.63;;;3.72;;
5533;SDS011;2789;51.902;7.636;2022-08-25T05:40:50;5.05;;;3.83;;
5533;SDS011;2789;51.902;7.636;2022-08-25T05:41:53;8.80;;;4.28;;
5533;SDS011;2789;51.902;7.636;2022-08-25T05:42:55;4.75;;;3.58;;
5533;SDS011;2789;51.902;7.636;2022-08-25T05:43:58;5.38;;;3.72;;
5533;SDS011;2789;51.902;7.636;2022-08-25T05:45:01;6.30;;;5.00;;
5533;SDS011;2789;51.902;7.636;2022-08-25T05:46:02;8.50;;;5.07;;
5533;SDS011;2789;51.902;7.636;2022-08-25T05:47:05;7.57;;;4.20;;
5533;SDS011;2789;51.902;7.636;2022-08-25T05:48:09;6.32;;;4.13;;
5533;SDS011;2789;51.902;7.636;2022-08-25T05:49:14;4.32;;;3.72;;
5533;SDS011;2789;51.902;7.636;2022-08-25T05:50:17;9.18;;;4.70;;
5533;SDS011;2789;51.902;7.636;2022-08-25T05:51:19;7.75;;;4.10;;
5533;SDS011;2789;51.902;7.636;2022-08-25T05:52:22;5.47;;;4.30;;
5533;SDS011;2789;51.902;7.636;2022-08-25T05:53:26;4.32;;;3.92;;
5533;SDS011;2789;51.902;7.636;2022-08-25T05:54:31;6.05;;;4.43;;
5533;SDS011;2789;51.902;7.636;2022-08-25T05:55:33;6.32;;;4.32;;
5533;SDS011;2789;51.902;7.636;2022-08-25T05:56:35;5.03;;;3.95;;
5533;SDS011;2789;51.902;7.636;2022-08-25T05:57:38;8.77;;;4.45;;
5533;SDS011;2789;51.902;7.636;2022-08-25T05:58:40;7.70;;;4.38;;
5533;SDS011;2789;51.902;7.636;2022-08-25T05:59:43;5.85;;;4.38;;
5533;SDS011;2789;51.902;7.636;2022-08-25T06:00:45;17.20;;;5.00;;
5533;SDS011;2789;51.902;7.636;2022-08-25T06:01:48;7.95;;;3.67;;
5533;SDS011;2789;51.902;7.636;2022-08-25T06:03:15;5.65;;;3.58;;
5533;SDS011;2789;51.902;7.636;2022-08-25T06:04:17;8.35;;;4.40;;
5533;SDS011;2789;51.902;7.636;2022-08-25T06:05:21;7.00;;;3.90;;
5533;SDS011;2789;51.902;7.636;2022-08-25T06:06:24;8.07;;;4.05;;
5533;SDS011;2789;51.902;7.636;2022-08-25T06:07:26;7.15;;;4.10;;
5533;SDS011;2789;51.902;7.636;2022-08-25T06:08:29;7.88;;;4.40;;
5533;SDS011;2789;51.902;7.636;2022-08-25T06:09:33;4.00;;;3.60;;
5533;SDS011;2789;51.902;7.636;2022-08-25T06:10:40;7.97;;;4.32;;
5533;SDS011;2789;51.902;7.636;2022-08-25T06:11:43;7.03;;;3.95;;
5533;SDS011;2789;51.902;7.636;2022-08-25T06:12:45;6.22;;;4.28;;
5533;SDS011;2789;51.902;7.636;2022-08-25T06:13:48;8.13;;;4.28;;
5533;SDS011;2789;51.902;7.636;2022-08-25T06:14:51;6.78;;;3.75;;
5533;SDS011;2789;51.902;7.636;2022-08-25T06:15:55;9.30;;;4.50;;
5533;SDS011;2789;51.902;7.636;2022-08-25T06:16:58;12.50;;;4.80;;
5533;SDS011;2789;51.902;7.636;2022-08-25T06:18:01;8.27;;;4.18;;
5533;SDS011;2789;51.902;7.636;2022-08-25T06:19:05;5.60;;;3.70;;
5533;SDS011;2789;51.902;7.636;2022-08-25T06:20:09;6.82;;;4.07;;
5533;SDS011;2789;51.902;7.636;2022-08-25T06:21:13;6.55;;;4.40;;
5533;SDS011;2789;51.902;7.636;2022-08-25T06:22:17;8.07;;;4.32;;
5533;SDS011;2789;51.902;7.636;2022-08-25T06:23:19;10.77;;;4.65;;
5533;SDS011;2789;51.902;7.636;2022-08-25T06:24:21;7.15;;;4.55;;
5533;SDS011;2789;51.902;7.636;2022-08-25T06:25:25;5.43;;;4.28;;
5533;SDS011;2789;51.902;7.636;2022-08-25T06:26:28;4.30;;;3.90;;
5533;SDS011;2789;51.902;7.636;2022-08-25T06:27:29;7.20;;;4.25;;
5533;SDS011;2789;51.902;7.636;2022-08-25T06:28:32;6.97;;;4.30;;
5533;SDS011;2789;51.902;7.636;2022-08-25T06:29:34;9.70;;;4.70;;
5533;SDS011;2789;51.902;7.636;2022-08-25T06:30:38;4.45;;;4.03;;
5533;SDS011;2789;51.902;7.636;2022-08-25T06:31:41;4.68;;;4.13;;
5533;SDS011;2789;51.902;7.636;2022-08-25T06:32:44;5.57;;;4.50;;
5533;SDS011;2789;51.902;7.636;2022-08-25T06:33:47;6.15;;;4.53;;
5533;SDS011;2789;51.902;7.636;2022-08-25T06:34:51;5.47;;;4.32;;